Darstellungsparameter: Aktuell verwendete Einstellungen:
Skalierung der Graphiken ... ?
xyx+y,   Skalierungsfaktor:      Skalierung: Modus: x, Faktor: 1
Darstellungszeitraum ... ?
Vom - - bis: - -   Zeitraum: 09.11.2019 - 09.11.2019
Min/Max/Avg-Anzeige ... ?
Zeige MMA aktuell
Zeige MMA Monat
Zeige MMA alles
Zeige --A aktuell
Zeige --A Monat
Zeige --A alles
Keine MMA-Anzeige
MMA:
Average (ber die Originaldaten)
MMA-Basis: 09.11.2019 - 09.11.2019
Quicknavigation für Darstellung... ?
Tage:      1T, 2T, 3T, 5T -1T -2T -3T -5T +1T +2T +3T +5T
Wochen: 1W, 2W, 3W -1W -2W -3W +1W +2W +3W
Monate: 1M, 3M, 6M -1M -3M -6M +1M +3M +6M
Jahre:    1J, 3J, 5J, 10J -1J -3J -5J -10J +1J +3J +5J +10J
Nutze für die Darstellung ... ?
Originaldaten oder Mittelwerte auf ...
Stundenbasis Tagesbasis Wochenbasis
Monatsbasis Jahresbasis      Datenbasis: Original-Daten
Darstellen als:
Statistik (Auto) Statistik J:M      Darstellung:
Zur Graphik,    zurück zur Übersicht aller Sensoren.
 
Tabellarische Datenbersicht: ?
 
Sensor: Nr:Datum:Temp:Abs-Feuchte:Windchill:Wind:
Aussen-T/F 1 09-11-2019 00:00:00 5.4 C 6.77 g/m*3 5.4 C 1.6 km/h
2 09-11-2019 00:05:00 5.4 C 6.77 g/m*3 3.2 C 9.7 km/h
3 09-11-2019 00:10:00 5.4 C 6.77 g/m*3 5.4 C 4.8 km/h
4 09-11-2019 00:15:00 5.4 C 6.77 g/m*3 5.4 C 4.8 km/h
5 09-11-2019 00:20:00 5.4 C 6.77 g/m*3 5.4 C 3.2 km/h
6 09-11-2019 00:25:00 5.3 C 6.72 g/m*3 5.3 C 4.8 km/h
7 09-11-2019 00:30:00 5.3 C 6.72 g/m*3 5.3 C 4.8 km/h
8 09-11-2019 00:35:00 5.3 C 6.72 g/m*3 5.3 C 4.8 km/h
9 09-11-2019 00:40:00 5.3 C 6.72 g/m*3 3.46 C 8.1 km/h
10 09-11-2019 00:45:00 5.3 C 6.72 g/m*3 3.94 C 6.4 km/h
11 09-11-2019 00:50:00 5.3 C 6.72 g/m*3 3.94 C 6.4 km/h
12 09-11-2019 00:55:00 5.3 C 6.72 g/m*3 5.3 C 4.8 km/h
13 09-11-2019 01:00:00 5.3 C 6.72 g/m*3 3.46 C 8.1 km/h
14 09-11-2019 01:05:00 5.2 C 6.68 g/m*3 3.34 C 8.1 km/h
15 09-11-2019 01:10:00 5.2 C 6.68 g/m*3 3.82 C 6.4 km/h
16 09-11-2019 01:15:00 5.2 C 6.68 g/m*3 3.82 C 6.4 km/h
17 09-11-2019 01:20:00 5.2 C 6.68 g/m*3 3.82 C 6.4 km/h
18 09-11-2019 01:25:00 5.2 C 6.68 g/m*3 3.34 C 8.1 km/h
19 09-11-2019 01:30:00 5.1 C 6.63 g/m*3 3.71 C 6.4 km/h
20 09-11-2019 01:35:00 5.1 C 6.63 g/m*3 5.1 C 1.6 km/h
21 09-11-2019 01:40:00 5.1 C 6.63 g/m*3 5.1 C 1.6 km/h
22 09-11-2019 01:45:00 5.1 C 6.63 g/m*3 5.1 C 4.8 km/h
23 09-11-2019 01:50:00 5.1 C 6.63 g/m*3 5.1 C 3.2 km/h
24 09-11-2019 01:55:00 5.1 C 6.63 g/m*3 5.1 C 1.6 km/h
25 09-11-2019 02:00:00 5.1 C 6.63 g/m*3 3.23 C 8.1 km/h
Sensor: Nr:Datum:Temp:Abs-Feuchte:Windchill:Wind:
Aussen-T/F 26 09-11-2019 02:05:00 5.1 C 6.63 g/m*3 3.71 C 6.4 km/h
27 09-11-2019 02:10:00 5.1 C 6.63 g/m*3 5.1 C 3.2 km/h
28 09-11-2019 02:15:00 5.1 C 6.63 g/m*3 5.1 C 4.8 km/h
29 09-11-2019 02:20:00 5.1 C 6.63 g/m*3 3.71 C 6.4 km/h
30 09-11-2019 02:25:00 5.1 C 6.63 g/m*3 3.23 C 8.1 km/h
31 09-11-2019 02:30:00 5.1 C 6.63 g/m*3 3.71 C 6.4 km/h
32 09-11-2019 02:35:00 5.1 C 6.63 g/m*3 5.1 C 4.8 km/h
33 09-11-2019 02:40:00 5.1 C 6.63 g/m*3 3.71 C 6.4 km/h
34 09-11-2019 02:45:00 5.1 C 6.63 g/m*3 3.23 C 8.1 km/h
35 09-11-2019 02:50:00 5.1 C 6.63 g/m*3 3.71 C 6.4 km/h
36 09-11-2019 02:55:00 5.1 C 6.63 g/m*3 5.1 C 4.8 km/h
37 09-11-2019 03:00:00 5.1 C 6.63 g/m*3 5.1 C 3.2 km/h
38 09-11-2019 03:05:00 5.1 C 6.63 g/m*3 5.1 C 3.2 km/h
39 09-11-2019 03:10:00 5.1 C 6.63 g/m*3 3.71 C 6.4 km/h
40 09-11-2019 03:15:00 5.1 C 6.63 g/m*3 5.1 C 0 km/h
41 09-11-2019 03:20:00 5.1 C 6.63 g/m*3 5.1 C 4.8 km/h
42 09-11-2019 03:25:00 5.1 C 6.63 g/m*3 3.71 C 6.4 km/h
43 09-11-2019 03:30:00 5.1 C 6.63 g/m*3 3.71 C 6.4 km/h
44 09-11-2019 03:35:00 5.1 C 6.63 g/m*3 5.1 C 3.2 km/h
45 09-11-2019 03:40:00 5.1 C 6.63 g/m*3 5.1 C 3.2 km/h
46 09-11-2019 03:45:00 5.2 C 6.68 g/m*3 5.2 C 1.6 km/h
47 09-11-2019 03:50:00 5.2 C 6.68 g/m*3 5.2 C 1.6 km/h
48 09-11-2019 03:55:00 5.2 C 6.68 g/m*3 5.2 C 0 km/h
49 09-11-2019 04:00:00 5.2 C 6.68 g/m*3 5.2 C 0 km/h
50 09-11-2019 04:05:00 5.3 C 6.72 g/m*3 3.94 C 6.4 km/h
Sensor: Nr:Datum:Temp:Abs-Feuchte:Windchill:Wind:
Aussen-T/F 51 09-11-2019 04:10:00 5.3 C 6.72 g/m*3 5.3 C 3.2 km/h
52 09-11-2019 04:15:00 5.3 C 6.72 g/m*3 5.3 C 3.2 km/h
53 09-11-2019 04:20:00 5.2 C 6.68 g/m*3 5.2 C 3.2 km/h
54 09-11-2019 04:25:00 5.2 C 6.68 g/m*3 5.2 C 0 km/h
55 09-11-2019 04:30:00 5.1 C 6.63 g/m*3 5.1 C 1.6 km/h
56 09-11-2019 04:35:00 4.9 C 6.55 g/m*3 4.9 C 0 km/h
57 09-11-2019 04:40:00 4.8 C 6.5 g/m*3 4.8 C 0 km/h
58 09-11-2019 04:45:00 4.6 C 6.42 g/m*3 4.6 C 0 km/h
59 09-11-2019 04:50:00 4.4 C 6.33 g/m*3 4.4 C 0 km/h
60 09-11-2019 04:55:00 4.3 C 6.29 g/m*3 4.3 C 0 km/h
61 09-11-2019 05:00:00 4.3 C 6.29 g/m*3 4.3 C 1.6 km/h
62 09-11-2019 05:05:00 4.3 C 6.29 g/m*3 4.3 C 0 km/h
63 09-11-2019 05:10:00 4.4 C 6.33 g/m*3 4.4 C 1.6 km/h
64 09-11-2019 05:15:00 4.5 C 6.38 g/m*3 4.5 C 0 km/h
65 09-11-2019 05:20:00 4.7 C 6.46 g/m*3 4.7 C 3.2 km/h
66 09-11-2019 05:25:00 4.8 C 6.5 g/m*3 4.8 C 4.8 km/h
67 09-11-2019 05:30:00 4.9 C 6.55 g/m*3 4.9 C 1.6 km/h
68 09-11-2019 05:35:00 4.9 C 6.62 g/m*3 4.9 C 0 km/h
69 09-11-2019 05:40:00 5.1 C 6.7 g/m*3 5.1 C 4.8 km/h
70 09-11-2019 05:45:00 5.1 C 6.63 g/m*3 5.1 C 4.8 km/h
71 09-11-2019 05:50:00 5.2 C 6.68 g/m*3 3.82 C 6.4 km/h
72 09-11-2019 05:55:00 5.2 C 6.68 g/m*3 3.34 C 8.1 km/h
73 09-11-2019 06:00:00 5.1 C 6.63 g/m*3 2.51 C 11.3 km/h
74 09-11-2019 06:05:00 4.9 C 6.55 g/m*3 2.27 C 11.3 km/h
75 09-11-2019 06:10:00 4.8 C 6.5 g/m*3 2.15 C 11.3 km/h
Sensor: Nr:Datum:Temp:Abs-Feuchte:Windchill:Wind:
Aussen-T/F 76 09-11-2019 06:15:00 4.6 C 6.42 g/m*3 2.64 C 8.1 km/h
77 09-11-2019 06:20:00 4.5 C 6.38 g/m*3 4.5 C 4.8 km/h
78 09-11-2019 06:25:00 4.3 C 6.23 g/m*3 4.3 C 3.2 km/h
79 09-11-2019 06:30:00 4.3 C 6.23 g/m*3 4.3 C 4.8 km/h
80 09-11-2019 06:35:00 4.3 C 6.23 g/m*3 4.3 C 1.6 km/h
81 09-11-2019 06:40:00 4.2 C 6.19 g/m*3 4.2 C 1.6 km/h
82 09-11-2019 06:45:00 4.2 C 6.19 g/m*3 2.67 C 6.4 km/h
83 09-11-2019 06:50:00 4.1 C 6.14 g/m*3 4.1 C 1.6 km/h
84 09-11-2019 06:55:00 4.1 C 6.14 g/m*3 4.1 C 4.8 km/h
85 09-11-2019 07:00:00 3.9 C 6.06 g/m*3 3.9 C 1.6 km/h
86 09-11-2019 07:05:00 3.8 C 6.02 g/m*3 3.8 C 0 km/h
87 09-11-2019 07:10:00 3.7 C 5.98 g/m*3 3.7 C 3.2 km/h
88 09-11-2019 07:15:00 3.6 C 5.94 g/m*3 3.6 C 0 km/h
89 09-11-2019 07:20:00 3.5 C 5.9 g/m*3 3.5 C 0 km/h
90 09-11-2019 07:25:00 3.4 C 5.86 g/m*3 3.4 C 0 km/h
91 09-11-2019 07:30:00 3.3 C 5.82 g/m*3 3.3 C 1.6 km/h
92 09-11-2019 07:35:00 3.3 C 5.82 g/m*3 3.3 C 3.2 km/h
93 09-11-2019 07:40:00 3.3 C 5.82 g/m*3 3.3 C 0 km/h
94 09-11-2019 07:45:00 3.2 C 5.79 g/m*3 3.2 C 0 km/h
95 09-11-2019 07:50:00 3.2 C 5.79 g/m*3 3.2 C 0 km/h
96 09-11-2019 07:55:00 3.1 C 5.75 g/m*3 3.1 C 0 km/h
97 09-11-2019 08:00:00 3.1 C 5.75 g/m*3 3.1 C 0 km/h
98 09-11-2019 08:05:00 3.1 C 5.75 g/m*3 3.1 C 0 km/h
99 09-11-2019 08:10:00 3.1 C 5.75 g/m*3 3.1 C 0 km/h
100 09-11-2019 08:15:00 3.1 C 5.75 g/m*3 3.1 C 0 km/h
Sensor: Nr:Datum:Temp:Abs-Feuchte:Windchill:Wind:
Aussen-T/F 101 09-11-2019 08:20:00 3.2 C 5.85 g/m*3 3.2 C 0 km/h
102 09-11-2019 08:25:00 3.2 C 5.85 g/m*3 3.2 C 1.6 km/h
103 09-11-2019 08:30:00 3.3 C 5.88 g/m*3 3.3 C 0 km/h
104 09-11-2019 08:35:00 3.4 C 5.92 g/m*3 3.4 C 0 km/h
105 09-11-2019 08:40:00 3.4 C 5.92 g/m*3 3.4 C 0 km/h
106 09-11-2019 08:45:00 3.5 C 5.96 g/m*3 3.5 C 0 km/h
107 09-11-2019 08:50:00 3.5 C 5.96 g/m*3 3.5 C 0 km/h
108 09-11-2019 08:55:00 3.6 C 6 g/m*3 3.6 C 0 km/h
109 09-11-2019 09:00:00 3.8 C 6.09 g/m*3 3.8 C 0 km/h
110 09-11-2019 09:05:00 3.9 C 6.13 g/m*3 3.9 C 0 km/h
111 09-11-2019 09:10:00 4.1 C 6.21 g/m*3 4.1 C 0 km/h
112 09-11-2019 09:15:00 4.2 C 6.25 g/m*3 4.2 C 0 km/h
113 09-11-2019 09:20:00 4.3 C 6.29 g/m*3 4.3 C 0 km/h
114 09-11-2019 09:25:00 4.4 C 6.33 g/m*3 2.4 C 8.1 km/h
115 09-11-2019 09:30:00 4.7 C 6.46 g/m*3 2.37 C 9.7 km/h
116 09-11-2019 09:35:00 4.8 C 6.5 g/m*3 2.49 C 9.7 km/h
117 09-11-2019 09:40:00 4.9 C 6.55 g/m*3 2.61 C 9.7 km/h
118 09-11-2019 09:45:00 5 C 6.52 g/m*3 2.72 C 9.7 km/h
119 09-11-2019 09:50:00 5.1 C 6.57 g/m*3 3.71 C 6.4 km/h
120 09-11-2019 09:55:00 5.2 C 6.54 g/m*3 2.96 C 9.7 km/h
121 09-11-2019 10:00:00 5.3 C 6.58 g/m*3 2.75 C 11.3 km/h
122 09-11-2019 10:05:00 5.3 C 6.52 g/m*3 2.46 C 12.9 km/h
123 09-11-2019 10:10:00 5.4 C 6.49 g/m*3 2.32 C 14.5 km/h
124 09-11-2019 10:15:00 5.5 C 6.53 g/m*3 2.44 C 14.5 km/h
125 09-11-2019 10:20:00 5.6 C 6.57 g/m*3 3.81 C 8.1 km/h
Sensor: Nr:Datum:Temp:Abs-Feuchte:Windchill:Wind:
Aussen-T/F 126 09-11-2019 10:25:00 5.7 C 6.55 g/m*3 3.93 C 8.1 km/h
127 09-11-2019 10:30:00 5.7 C 6.55 g/m*3 3.56 C 9.7 km/h
128 09-11-2019 10:35:00 5.8 C 6.59 g/m*3 3.68 C 9.7 km/h
129 09-11-2019 10:40:00 5.9 C 6.56 g/m*3 3.8 C 9.7 km/h
130 09-11-2019 10:45:00 5.9 C 6.56 g/m*3 2.48 C 17.7 km/h
131 09-11-2019 10:50:00 5.9 C 6.56 g/m*3 3.48 C 11.3 km/h
132 09-11-2019 10:55:00 5.9 C 6.56 g/m*3 3.19 C 12.9 km/h
133 09-11-2019 11:00:00 5.9 C 6.56 g/m*3 3.48 C 11.3 km/h
134 09-11-2019 11:05:00 5.9 C 6.56 g/m*3 4.63 C 6.4 km/h
135 09-11-2019 11:10:00 5.9 C 6.56 g/m*3 3.19 C 12.9 km/h
136 09-11-2019 11:15:00 5.8 C 6.52 g/m*3 3.36 C 11.3 km/h
137 09-11-2019 11:20:00 5.9 C 6.56 g/m*3 4.17 C 8.1 km/h
138 09-11-2019 11:25:00 5.9 C 6.56 g/m*3 3.8 C 9.7 km/h
139 09-11-2019 11:30:00 5.9 C 6.56 g/m*3 4.17 C 8.1 km/h
140 09-11-2019 11:35:00 5.9 C 6.49 g/m*3 4.17 C 8.1 km/h
141 09-11-2019 11:40:00 5.9 C 6.56 g/m*3 3.8 C 9.7 km/h
142 09-11-2019 11:45:00 5.9 C 6.56 g/m*3 4.63 C 6.4 km/h
143 09-11-2019 11:50:00 6 C 6.6 g/m*3 3.92 C 9.7 km/h
144 09-11-2019 11:55:00 6.1 C 6.65 g/m*3 3.18 C 14.5 km/h
145 09-11-2019 12:00:00 6.1 C 6.58 g/m*3 3.72 C 11.3 km/h
146 09-11-2019 12:05:00 6.1 C 6.58 g/m*3 4.4 C 8.1 km/h
147 09-11-2019 12:10:00 6.1 C 6.58 g/m*3 4.4 C 8.1 km/h
148 09-11-2019 12:15:00 6.1 C 6.58 g/m*3 4.4 C 8.1 km/h
149 09-11-2019 12:20:00 6.2 C 6.62 g/m*3 6.2 C 4.8 km/h
150 09-11-2019 12:25:00 6.2 C 6.62 g/m*3 4.52 C 8.1 km/h
Sensor: Nr:Datum:Temp:Abs-Feuchte:Windchill:Wind:
Aussen-T/F 151 09-11-2019 12:30:00 6.3 C 6.66 g/m*3 5.1 C 6.4 km/h
152 09-11-2019 12:35:00 6.4 C 6.71 g/m*3 4.08 C 11.3 km/h
153 09-11-2019 12:40:00 6.6 C 6.79 g/m*3 5.44 C 6.4 km/h
154 09-11-2019 12:45:00 6.7 C 6.76 g/m*3 4.44 C 11.3 km/h
155 09-11-2019 12:50:00 6.8 C 6.73 g/m*3 4.29 C 12.9 km/h
156 09-11-2019 12:55:00 6.9 C 6.77 g/m*3 4.68 C 11.3 km/h
157 09-11-2019 13:00:00 7 C 6.82 g/m*3 5.11 C 9.7 km/h
158 09-11-2019 13:05:00 7 C 6.82 g/m*3 5.11 C 9.7 km/h
159 09-11-2019 13:10:00 7 C 6.82 g/m*3 5.9 C 6.4 km/h
160 09-11-2019 13:15:00 6.9 C 6.7 g/m*3 4.68 C 11.3 km/h
161 09-11-2019 13:20:00 6.9 C 6.7 g/m*3 5.79 C 6.4 km/h
162 09-11-2019 13:25:00 6.9 C 6.7 g/m*3 6.9 C 4.8 km/h
163 09-11-2019 13:30:00 7 C 6.74 g/m*3 4.8 C 11.3 km/h
164 09-11-2019 13:35:00 7.1 C 6.79 g/m*3 4.92 C 11.3 km/h
165 09-11-2019 13:40:00 7.2 C 6.83 g/m*3 5.04 C 11.3 km/h
166 09-11-2019 13:45:00 7.2 C 6.75 g/m*3 6.13 C 6.4 km/h
167 09-11-2019 13:50:00 7.2 C 6.75 g/m*3 5.69 C 8.1 km/h
168 09-11-2019 13:55:00 7.1 C 6.71 g/m*3 6.02 C 6.4 km/h
169 09-11-2019 14:00:00 7 C 6.66 g/m*3 7 C 4.8 km/h
170 09-11-2019 14:05:00 7 C 6.74 g/m*3 7 C 4.8 km/h
171 09-11-2019 14:10:00 7 C 6.74 g/m*3 5.9 C 6.4 km/h
172 09-11-2019 14:15:00 7 C 6.74 g/m*3 7 C 4.8 km/h
173 09-11-2019 14:20:00 7 C 6.82 g/m*3 7 C 4.8 km/h
174 09-11-2019 14:25:00 6.9 C 6.77 g/m*3 5.79 C 6.4 km/h
175 09-11-2019 14:30:00 6.9 C 6.77 g/m*3 4.41 C 12.9 km/h
Sensor: Nr:Datum:Temp:Abs-Feuchte:Windchill:Wind:
Aussen-T/F 176 09-11-2019 14:35:00 6.9 C 6.77 g/m*3 4.99 C 9.7 km/h
177 09-11-2019 14:40:00 6.8 C 6.73 g/m*3 5.22 C 8.1 km/h
178 09-11-2019 14:45:00 6.9 C 6.85 g/m*3 6.9 C 4.8 km/h
179 09-11-2019 14:50:00 6.9 C 6.77 g/m*3 4.99 C 9.7 km/h
180 09-11-2019 14:55:00 6.9 C 6.85 g/m*3 5.79 C 6.4 km/h
181 09-11-2019 15:00:00 6.9 C 6.85 g/m*3 5.34 C 8.1 km/h
182 09-11-2019 15:05:00 6.8 C 6.81 g/m*3 6.8 C 4.8 km/h
183 09-11-2019 15:10:00 6.8 C 6.81 g/m*3 6.8 C 4.8 km/h
184 09-11-2019 15:15:00 6.8 C 6.81 g/m*3 5.67 C 6.4 km/h
185 09-11-2019 15:20:00 6.8 C 6.88 g/m*3 5.67 C 6.4 km/h
186 09-11-2019 15:25:00 6.7 C 6.91 g/m*3 6.7 C 4.8 km/h
187 09-11-2019 15:30:00 6.7 C 6.91 g/m*3 6.7 C 0 km/h
188 09-11-2019 15:35:00 6.6 C 6.87 g/m*3 6.6 C 0 km/h
189 09-11-2019 15:40:00 6.6 C 6.95 g/m*3 6.6 C 1.6 km/h
190 09-11-2019 15:45:00 6.5 C 6.9 g/m*3 6.5 C 0 km/h
191 09-11-2019 15:50:00 6.5 C 6.9 g/m*3 6.5 C 0 km/h
192 09-11-2019 15:55:00 6.5 C 6.9 g/m*3 6.5 C 1.6 km/h
193 09-11-2019 16:00:00 6.6 C 6.95 g/m*3 6.6 C 1.6 km/h
194 09-11-2019 16:05:00 6.6 C 6.95 g/m*3 6.6 C 0 km/h
195 09-11-2019 16:10:00 6.6 C 6.95 g/m*3 6.6 C 3.2 km/h
196 09-11-2019 16:15:00 6.6 C 6.95 g/m*3 6.6 C 1.6 km/h
197 09-11-2019 16:20:00 6.6 C 6.95 g/m*3 6.6 C 0 km/h
198 09-11-2019 16:25:00 6.6 C 6.95 g/m*3 6.6 C 3.2 km/h
199 09-11-2019 16:30:00 6.6 C 6.95 g/m*3 6.6 C 1.6 km/h
200 09-11-2019 16:35:00 6.6 C 6.95 g/m*3 6.6 C 0 km/h
Sensor: Nr:Datum:Temp:Abs-Feuchte:Windchill:Wind:
Aussen-T/F 201 09-11-2019 16:40:00 6.6 C 6.95 g/m*3 6.6 C 1.6 km/h
202 09-11-2019 16:45:00 6.5 C 6.9 g/m*3 6.5 C 1.6 km/h
203 09-11-2019 16:50:00 6.5 C 6.9 g/m*3 6.5 C 0 km/h
204 09-11-2019 16:55:00 6.4 C 6.93 g/m*3 6.4 C 1.6 km/h
205 09-11-2019 17:00:00 6.4 C 6.93 g/m*3 6.4 C 0 km/h
206 09-11-2019 17:05:00 6.4 C 6.93 g/m*3 6.4 C 0 km/h
207 09-11-2019 17:10:00 6.3 C 6.88 g/m*3 6.3 C 0 km/h
208 09-11-2019 17:15:00 6.3 C 6.88 g/m*3 6.3 C 0 km/h
209 09-11-2019 17:20:00 6.3 C 6.88 g/m*3 6.3 C 1.6 km/h
210 09-11-2019 17:25:00 6.2 C 6.84 g/m*3 6.2 C 0 km/h
211 09-11-2019 17:30:00 6.2 C 6.84 g/m*3 6.2 C 0 km/h
212 09-11-2019 17:35:00 6.2 C 6.84 g/m*3 6.2 C 0 km/h
213 09-11-2019 17:40:00 6.1 C 6.79 g/m*3 6.1 C 0 km/h
214 09-11-2019 17:45:00 6 C 6.75 g/m*3 6 C 0 km/h
215 09-11-2019 17:50:00 5.9 C 6.71 g/m*3 5.9 C 0 km/h
216 09-11-2019 17:55:00 5.8 C 6.66 g/m*3 5.8 C 1.6 km/h
217 09-11-2019 18:00:00 5.7 C 6.62 g/m*3 5.7 C 0 km/h
218 09-11-2019 18:05:00 5.7 C 6.62 g/m*3 5.7 C 0 km/h
219 09-11-2019 18:10:00 5.7 C 6.62 g/m*3 5.7 C 1.6 km/h
220 09-11-2019 18:15:00 5.6 C 6.57 g/m*3 5.6 C 0 km/h
221 09-11-2019 18:20:00 5.6 C 6.57 g/m*3 5.6 C 0 km/h
222 09-11-2019 18:25:00 5.5 C 6.53 g/m*3 5.5 C 0 km/h
223 09-11-2019 18:30:00 5.4 C 6.49 g/m*3 5.4 C 0 km/h
224 09-11-2019 18:35:00 5.3 C 6.45 g/m*3 5.3 C 0 km/h
225 09-11-2019 18:40:00 5.2 C 6.4 g/m*3 5.2 C 0 km/h
Sensor: Nr:Datum:Temp:Abs-Feuchte:Windchill:Wind:
Aussen-T/F 226 09-11-2019 18:45:00 5.1 C 6.36 g/m*3 5.1 C 0 km/h
227 09-11-2019 18:50:00 4.9 C 6.28 g/m*3 4.9 C 0 km/h
228 09-11-2019 18:55:00 4.8 C 6.3 g/m*3 4.8 C 0 km/h
229 09-11-2019 19:00:00 4.7 C 6.26 g/m*3 4.7 C 0 km/h
230 09-11-2019 19:05:00 4.7 C 6.26 g/m*3 4.7 C 1.6 km/h
231 09-11-2019 19:10:00 4.7 C 6.26 g/m*3 4.7 C 1.6 km/h
232 09-11-2019 19:15:00 4.8 C 6.37 g/m*3 4.8 C 1.6 km/h
233 09-11-2019 19:20:00 4.9 C 6.41 g/m*3 4.9 C 4.8 km/h
234 09-11-2019 19:25:00 5 C 6.46 g/m*3 3.11 C 8.1 km/h
235 09-11-2019 19:30:00 5 C 6.39 g/m*3 5 C 1.6 km/h
236 09-11-2019 19:35:00 5.1 C 6.43 g/m*3 5.1 C 0 km/h
237 09-11-2019 19:40:00 5 C 6.39 g/m*3 5 C 4.8 km/h
238 09-11-2019 19:45:00 4.9 C 6.35 g/m*3 4.9 C 0 km/h
239 09-11-2019 19:50:00 4.9 C 6.35 g/m*3 4.9 C 0 km/h
240 09-11-2019 19:55:00 4.8 C 6.24 g/m*3 4.8 C 0 km/h
241 09-11-2019 20:00:00 4.8 C 6.24 g/m*3 4.8 C 0 km/h
242 09-11-2019 20:05:00 4.7 C 6.19 g/m*3 4.7 C 0 km/h
243 09-11-2019 20:10:00 4.6 C 6.15 g/m*3 4.6 C 0 km/h
244 09-11-2019 20:15:00 4.4 C 6.07 g/m*3 4.4 C 0 km/h
245 09-11-2019 20:20:00 4.2 C 5.93 g/m*3 4.2 C 0 km/h
246 09-11-2019 20:25:00 3.9 C 5.81 g/m*3 3.9 C 0 km/h
247 09-11-2019 20:30:00 3.8 C 5.83 g/m*3 3.8 C 0 km/h
248 09-11-2019 20:35:00 3.7 C 5.8 g/m*3 3.7 C 0 km/h
249 09-11-2019 20:40:00 3.6 C 5.82 g/m*3 3.6 C 0 km/h
250 09-11-2019 20:45:00 3.6 C 5.82 g/m*3 3.6 C 0 km/h
Sensor: Nr:Datum:Temp:Abs-Feuchte:Windchill:Wind:
Aussen-T/F 251 09-11-2019 20:50:00 3.6 C 5.82 g/m*3 3.6 C 0 km/h
252 09-11-2019 20:55:00 3.5 C 5.78 g/m*3 3.5 C 0 km/h
253 09-11-2019 21:00:00 3.4 C 5.74 g/m*3 3.4 C 0 km/h
254 09-11-2019 21:05:00 3.4 C 5.74 g/m*3 3.4 C 0 km/h
255 09-11-2019 21:10:00 3.3 C 5.7 g/m*3 3.3 C 0 km/h
256 09-11-2019 21:15:00 3.3 C 5.7 g/m*3 3.3 C 0 km/h
257 09-11-2019 21:20:00 3.3 C 5.76 g/m*3 3.3 C 0 km/h
258 09-11-2019 21:25:00 3.3 C 5.76 g/m*3 3.3 C 0 km/h
259 09-11-2019 21:30:00 3.2 C 5.72 g/m*3 3.2 C 0 km/h
260 09-11-2019 21:35:00 3.2 C 5.72 g/m*3 3.2 C 0 km/h
261 09-11-2019 21:40:00 3.2 C 5.72 g/m*3 3.2 C 0 km/h
262 09-11-2019 21:45:00 3.2 C 5.72 g/m*3 3.2 C 0 km/h
263 09-11-2019 21:50:00 3.2 C 5.72 g/m*3 3.2 C 0 km/h
264 09-11-2019 21:55:00 3.1 C 5.69 g/m*3 3.1 C 0 km/h
265 09-11-2019 22:00:00 3.1 C 5.69 g/m*3 3.1 C 0 km/h
266 09-11-2019 22:05:00 3.1 C 5.69 g/m*3 3.1 C 0 km/h
267 09-11-2019 22:10:00 2.9 C 5.61 g/m*3 2.9 C 0 km/h
268 09-11-2019 22:15:00 2.8 C 5.57 g/m*3 2.8 C 0 km/h
269 09-11-2019 22:20:00 2.7 C 5.54 g/m*3 2.7 C 0 km/h
270 09-11-2019 22:25:00 2.6 C 5.5 g/m*3 2.6 C 0 km/h
271 09-11-2019 22:30:00 2.6 C 5.5 g/m*3 2.6 C 0 km/h
272 09-11-2019 22:35:00 2.5 C 5.46 g/m*3 2.5 C 0 km/h
273 09-11-2019 22:40:00 2.6 C 5.5 g/m*3 2.6 C 0 km/h
274 09-11-2019 22:45:00 2.6 C 5.56 g/m*3 2.6 C 0 km/h
275 09-11-2019 22:50:00 2.6 C 5.56 g/m*3 2.6 C 0 km/h
Sensor: Nr:Datum:Temp:Abs-Feuchte:Windchill:Wind:
Aussen-T/F 276 09-11-2019 22:55:00 2.6 C 5.56 g/m*3 2.6 C 0 km/h
277 09-11-2019 23:00:00 2.4 C 5.42 g/m*3 2.4 C 0 km/h
278 09-11-2019 23:05:00 2.3 C 5.39 g/m*3 2.3 C 0 km/h
279 09-11-2019 23:10:00 2.2 C 5.35 g/m*3 2.2 C 0 km/h
280 09-11-2019 23:15:00 2.1 C 5.31 g/m*3 2.1 C 0 km/h
281 09-11-2019 23:20:00 2.1 C 5.31 g/m*3 2.1 C 0 km/h
282 09-11-2019 23:25:00 1.9 C 5.24 g/m*3 1.9 C 0 km/h
283 09-11-2019 23:30:00 1.9 C 5.24 g/m*3 1.9 C 0 km/h
284 09-11-2019 23:35:00 1.9 C 5.24 g/m*3 1.9 C 0 km/h
285 09-11-2019 23:40:00 1.8 C 5.21 g/m*3 1.8 C 0 km/h
286 09-11-2019 23:45:00 1.8 C 5.21 g/m*3 1.8 C 0 km/h
287 09-11-2019 23:50:00 1.8 C 5.21 g/m*3 1.8 C 0 km/h
288 09-11-2019 23:55:00 1.7 C 5.17 g/m*3 1.7 C 0 km/h

Legende:
   Min
   Max


Maximal/Minimal-Werte vom 09.11.2019 - 09.11.2019

Sensor Min Max Avg
Temp
(Aussen-T/F)
1.7 °C
09-11-2019  23:55:00
7.2 °C
09-11-2019  13:40:00
4.99 °C
Abs-Feuchte
(Aussen-T/F)
5.17 g/m*3
09-11-2019  23:55:00
6.95 g/m*3
09-11-2019  15:40:00
6.37 g/m*3
Windchill
(Aussen-T/F)
1.7 C
09-11-2019  23:55:00
7 C
09-11-2019  14:00:00
4.37 C

Die Daten stammen von einer Davis Vantage Pro 2 Wetter-Station und werden unter Linux mit der Software wview2wettercgi und aufbereitet. Alle Angaben erfolgen ohne Gewähr für ihre Vollständigkeit oder Richtigkeit.
Kontakt: Rainer Krienke krienke@uni-koblenz.de . Meine Webseiten an der Uni Koblenz oder privat.
Version: $Revision: 0.78 $